Flight Track Log - Related Links

Times and Time Zones

All times are in EDT time to prevent confusion due to time zone crossing. See the DAL1421 flight status page for this flight to view local times or setup timezone preferences in your user account.

Time Position Orientation Groundspeed Altitude Reporting Facility
EDT Latitude Longitude Course Direction KTS MPH feet Rate Location/Type
Sat 06:47:08 PM 27.9667 -82.5500 North 171 197 500  Level Tampa TRACON
Sat 06:48:45 PM 27.9242 -82.6200 236° Southwest 185 213 4,200 2,290 Climbing Jacksonville Center
Sat 06:49:19 PM 27.9286 -82.6525 279° West 244 281 5,500 3,000 Climbing Miami Center
Sat 06:50:21 PM 27.9883 -82.7000 325° Northwest 290 334 9,000 2,829 Climbing Miami Center
Sat 06:51:00 PM 28.5477 -82.5831 355° North  Level FlightAware Approximate
Sat 06:51:22 PM 28.1000 -82.6806 North 333 383 11,300  Level Miami Center
Sat 06:52:00 PM 28.6658 -82.5833 North  Level FlightAware Approximate
Sat 06:52:24 PM 28.2103 -82.6628 North 383 441 11,900  Level Miami Center
Sat 06:53:25 PM 28.3189 -82.6464 North 389 448 11,900  Level Miami Center
Sat 06:54:27 PM 28.4275 -82.6278 North 390 449 11,900 194 Level Miami Center
Sat 06:55:29 PM 28.5361 -82.6097 North 390 449 12,300 1,707 Climbing Miami Center
Sat 06:56:30 PM 28.6558 -82.5925 North 398 458 15,400 2,732 Climbing Miami Center
Sat 06:57:32 PM 28.7725 -82.6028 356° North 415 478 17,900 2,244 Climbing Miami Center
Sat 06:58:33 PM 28.8939 -82.6200 353° North 435 501 20,000 2,098 Climbing Miami Center
Sat 06:59:35 PM 29.0194 -82.6375 353° North 451 519 22,200 2,049 Climbing Miami Center
Sat 07:00:36 PM 29.1464 -82.6558 353° North 456 525 24,200 1,902 Climbing Miami Center
Sat 07:01:38 PM 29.2772 -82.6736 353° North 471 542 26,100 1,707 Climbing Miami Center
Sat 07:02:39 PM 29.4325 -82.6947 353° North 469 540 27,700 1,370 Climbing Miami Center
Sat 07:03:45 PM 29.5692 -82.6944 360° North 478 550 29,000 1,619 Climbing Jacksonville Center
Sat 07:04:45 PM 29.7047 -82.6964 359° North 483 556 31,100 2,150 Climbing Jacksonville Center
Sat 07:05:45 PM 29.8322 -82.6939 North 472 543 33,300 1,450 Climbing Jacksonville Center
Sat 07:06:45 PM 29.9617 -82.6911 North 467 537 34,000 300 Climbing Jacksonville Center
Sat 07:07:45 PM 30.0867 -82.6742 North 461 531 33,900  Descending Jacksonville Center
Sat 07:08:45 PM 30.2203 -82.6569 North 466 536 34,000 50 Climbing Jacksonville Center
Sat 07:09:45 PM 30.3478 -82.6447 North 466 536 34,000 450 Level Jacksonville Center
Sat 07:10:45 PM 30.4750 -82.6322 North 461 531 34,900 450 Climbing Jacksonville Center
Sat 07:11:45 PM 30.6003 -82.6197 North 461 531 34,900 50 Level Jacksonville Center
Sat 07:12:45 PM 30.7275 -82.6050 North 461 531 35,000 250 Climbing Jacksonville Center
Sat 07:13:45 PM 30.8550 -82.5900 North 461 531 35,400 800 Climbing Jacksonville Center
Sat 07:14:45 PM 30.9803 -82.5775 North 461 531 36,600 750 Climbing Jacksonville Center
Sat 07:15:45 PM 31.1097 -82.5603 North 461 531 36,900 150 Climbing Jacksonville Center
Sat 07:16:45 PM 31.2350 -82.5475 North 461 531 36,900 536 Level Jacksonville Center
Sat 07:19:40 PM 31.6158 -82.4978 North 456 525 39,000 536 Climbing Atlanta Center
Sat 07:20:40 PM 31.7431 -82.4758 North 463 533 39,000  Level Atlanta Center
Sat 07:21:40 PM 31.8722 -82.4567 North 468 539 39,000  Level Atlanta Center
Sat 07:22:40 PM 31.9992 -82.4322 North 462 532 39,000  Level Atlanta Center
Sat 07:23:40 PM 32.1344 -82.4128 North 462 532 39,000  Level Atlanta Center
Sat 07:24:40 PM 32.2761 -82.3928 North 462 532 39,000  Level Atlanta Center
Sat 07:25:40 PM 32.4075 -82.3708 North 462 532 39,000  Level Atlanta Center
Sat 07:26:40 PM 32.5344 -82.3511 North 462 532 39,000  Level Atlanta Center
Sat 07:27:40 PM 32.6678 -82.3314 North 467 537 39,000  Level Atlanta Center
Sat 07:28:40 PM 32.7947 -82.3139 North 467 537 39,000  Level Atlanta Center
Sat 07:29:40 PM 32.9261 -82.2892 North 469 540 39,000  Level Atlanta Center
Sat 07:30:40 PM 33.0550 -82.2667 North 463 533 39,000  Level Atlanta Center
Sat 07:31:40 PM 33.1842 -82.2467 North 463 533 39,000  Level Atlanta Center
Sat 07:32:40 PM 33.3133 -82.2242 North 463 533 39,000  Level Atlanta Center
Sat 07:33:40 PM 33.4319 -82.2042 North 463 533 39,000  Level Atlanta Center
Sat 07:34:40 PM 33.5589 -82.1817 North 463 533 39,000  Level Atlanta Center
Sat 07:35:40 PM 33.6964 -82.1611 North 468 539 39,000  Level Atlanta Center
Sat 07:36:40 PM 33.8297 -82.1383 North 473 544 39,000  Level Atlanta Center
Sat 07:37:40 PM 33.9628 -82.1153 North 483 556 39,000  Level Atlanta Center
Sat 07:38:40 PM 34.0939 -82.0922 North 483 556 39,000  Level Atlanta Center
Sat 07:39:40 PM 34.2272 -82.0717 North 483 556 39,000  Level Atlanta Center
Sat 07:40:40 PM 34.3708 -82.0456 North 483 556 39,000  Level Atlanta Center
Sat 07:41:40 PM 34.4997 -82.0225 North 483 556 39,000  Level Atlanta Center
Sat 07:42:40 PM 34.6289 -82.0017 North 473 544 39,000  Level Atlanta Center
Sat 07:43:40 PM 34.7578 -81.9783 North 473 544 39,000  Level Atlanta Center
Sat 07:44:40 PM 34.8889 -81.9522 North 473 544 39,000  Level Atlanta Center
Sat 07:45:40 PM 35.0158 -81.9339 North 468 539 39,000  Level Atlanta Center
Sat 07:46:40 PM 35.1431 -81.9356 359° North 463 533 39,000  Level Atlanta Center
Sat 07:47:40 PM 35.2747 -81.9375 359° North 457 526 39,000  Level Atlanta Center
Sat 07:48:40 PM 35.4061 -81.9417 359° North 462 532 39,000  Level Atlanta Center
Sat 07:49:40 PM 35.5336 -81.9461 358° North 462 532 39,000  Level Atlanta Center
Sat 07:50:40 PM 35.6650 -81.9478 359° North 462 532 39,000  Level Atlanta Center
Sat 07:51:40 PM 35.7944 -81.9522 358° North 462 532 39,000  Level Atlanta Center
Sat 07:52:40 PM 35.9278 -81.9539 359° North 462 532 39,000  Level Atlanta Center
Sat 07:54:11 PM 36.1231 -81.9542 360° North 475 547 39,000  Level Indianapolis Center
Sat 07:55:12 PM 36.2569 -81.9583 359° North 477 549 39,000  Level Indianapolis Center
Sat 07:56:13 PM 36.3906 -81.9608 359° North 481 554 39,000  Level Indianapolis Center
Sat 07:57:14 PM 36.5219 -81.9642 359° North 479 551 39,000  Level Indianapolis Center
Sat 07:58:15 PM 36.6531 -81.9678 359° North 478 550 39,000  Level Indianapolis Center
Sat 07:59:15 PM 36.7856 -81.9725 358° North 477 549 39,000  Level Indianapolis Center
Sat 08:00:16 PM 36.9194 -81.9758 359° North 478 550 39,000  Level Indianapolis Center
Sat 08:01:17 PM 37.0739 -81.9797 359° North 478 550 39,000  Level Indianapolis Center
Sat 08:02:18 PM 37.2078 -81.9828 359° North 478 550 39,000  Level Indianapolis Center
Sat 08:03:19 PM 37.3397 -81.9872 358° North 478 550 39,000 -198 Level Indianapolis Center
Sat 08:04:19 PM 37.4678 -81.9906 359° North 467 537 38,600 -694 Descending Indianapolis Center
Sat 08:05:20 PM 37.5894 -81.9942 359° North 446 513 37,600 -787 Descending Indianapolis Center
Sat 08:06:21 PM 37.7131 -81.9958 359° North 442 509 37,000 -295 Descending Indianapolis Center
Sat 08:07:22 PM 37.8397 -82.0006 358° North 449 517 37,000  Level Indianapolis Center
Sat 08:08:23 PM 37.9592 -82.0039 359° North 455 524 37,000  Level Indianapolis Center
Sat 08:09:24 PM 38.0875 -82.0072 359° North 457 526 37,000  Level Indianapolis Center
Sat 08:10:24 PM 38.2419 -82.0119 359° North 457 526 37,000  Level Indianapolis Center
Sat 08:11:25 PM 38.3714 -82.0158 359° North 458 527 37,000  Level Indianapolis Center
Sat 08:12:26 PM 38.5019 -82.0200 359° North 460 529 37,000  Level Indianapolis Center
Sat 08:13:27 PM 38.6331 -82.0233 359° North 462 532 37,000  Level Indianapolis Center
Sat 08:14:28 PM 38.7653 -82.0286 358° North 464 534 37,000  Level Indianapolis Center
Sat 08:15:29 PM 38.8919 -82.0478 353° North 460 529 37,000 -295 Level Indianapolis Center
Sat 08:16:30 PM 39.0200 -82.0678 353° North 459 528 36,400 -738 Descending Indianapolis Center
Sat 08:17:31 PM 39.1486 -82.0883 353° North 459 528 35,500 -694 Descending Indianapolis Center
Sat 08:18:31 PM 39.2786 -82.1081 353° North 463 533 35,000 -248 Descending Indianapolis Center
Sat 08:19:32 PM 39.4067 -82.1275 353° North 463 533 35,000  Level Indianapolis Center
Sat 08:20:33 PM 39.5356 -82.1492 353° North 460 529 35,000  Level Indianapolis Center
Sat 08:21:34 PM 39.6608 -82.1700 353° North 458 527 35,000  Level Indianapolis Center
Sat 08:22:35 PM 39.7867 -82.1903 353° North 458 527 35,000  Level Indianapolis Center
Sat 08:23:36 PM 39.9142 -82.2108 353° North 458 527 35,000  Level Indianapolis Center
Sat 08:24:37 PM 40.0425 -82.2306 353° North 461 531 35,000 -393 Level Indianapolis Center
Sat 08:25:38 PM 40.1703 -82.2517 353° North 462 532 34,200 -836 Descending Indianapolis Center
Sat 08:26:39 PM 40.2967 -82.2739 352° North 464 534 33,300 -1,240 Descending Indianapolis Center
Sat 08:27:39 PM 40.4269 -82.2944 353° North 464 534 31,700 -1,636 Descending Indianapolis Center
Sat 08:28:40 PM 40.5519 -82.3250 349° North 458 527 30,000 -1,030 Descending Indianapolis Center
Sat 08:29:18 PM 40.6289 -82.3739 334° Northwest 454 522 30,000 -364 Level Cleveland Center
Sat 08:30:19 PM 40.7444 -82.4461 335° Northwest 453 521 29,400 -738 Descending Cleveland Center
Sat 08:31:20 PM 40.8594 -82.5194 334° Northwest 453 521 28,500 -927 Descending Cleveland Center
Sat 08:32:22 PM 40.9761 -82.5917 335° Northwest 455 524 27,500 -1,024 Descending Cleveland Center
Sat 08:33:23 PM 41.0886 -82.6628 335° Northwest 446 513 26,400 -1,033 Descending Cleveland Center
Sat 08:34:24 PM 41.1997 -82.7331 335° Northwest 440 506 25,400 -1,574 Descending Cleveland Center
Sat 08:35:25 PM 41.3092 -82.8031 334° Northwest 435 501 23,200 -2,459 Descending Cleveland Center
Sat 08:36:26 PM 41.4133 -82.8686 335° Northwest 412 474 20,400 -2,656 Descending Cleveland Center
Sat 08:37:27 PM 41.5108 -82.9314 334° Northwest 389 448 17,800 -2,656 Descending Cleveland Center
Sat 08:38:28 PM 41.6044 -82.9922 334° Northwest 375 432 15,000 -2,824 Descending Cleveland Center
Sat 08:39:26 PM 41.7039 -83.0592 333° Northwest 358 412 12,200 -1,385 Descending Cleveland Center
Sat 08:40:38 PM 41.8053 -83.1317 332° Northwest 343 395 12,000 -95 Descending Cleveland Center
Sat 08:41:32 PM 41.8717 -83.1833 330° Northwest 345 397 12,000  Level Cleveland Center
Sat 08:42:33 PM 41.9469 -83.2389 331° Northwest 281 323 12,000  Level Cleveland Center
Sat 08:42:52 PM 41.9681 -83.2494 340° North 269 310 12,000  Level Cleveland Center
Sat 08:43:34 PM 42.0211 -83.2511 359° North 276 318 12,000  Level Cleveland Center
Sat 08:43:52 PM 42.0453 -83.2517 359° North 258 297 12,000  Level Cleveland Center
Sat 08:44:35 PM 42.0881 -83.2506 North 241 277 12,000  Level Cleveland Center
Sat 08:44:47 PM 42.1019 -83.2511 358° North 225 259 12,000 -1,180 Level Cleveland Center
Sat 08:45:36 PM 42.1511 -83.2269 20° North 251 289 10,800 -1,644 Descending Cleveland Center
Sat 08:46:00 PM 42.1783 -83.2111 23° Northeast 249 287 10,000 -1,770 Descending Cleveland Center
Sat 08:46:37 PM 42.2147 -83.1872 26° Northeast 246 283 9,000 -1,732 Descending Cleveland Center
Sat 08:47:37 PM 42.2750 -83.1511 24° Northeast 238 274 7,200 -1,707 Descending Cleveland Center
Sat 08:48:40 PM 42.3342 -83.1164 23° Northeast 239 275 5,500 -1,671 Descending Cleveland Center
Sat 08:48:56 PM 42.3531 -83.1167 359° North 226 260 5,000 -1,180 Descending Cleveland Center
Sat 08:49:41 PM 42.3764 -83.1558 309° West 216 249 4,300 -1,113 Descending Cleveland Center
Sat 08:50:33 PM 42.3769 -83.2161 271° West 195 224 3,200 -639 Descending Cleveland Center
Sat 08:51:43 PM 42.3311 -83.2528 211° Southwest 197 227 3,000 -504 Descending Cleveland Center
Sat 08:52:44 PM 42.2853 -83.2858 208° Southwest 191 220 2,100 -915 Descending Cleveland Center
Sat 08:53:41 PM 42.2436 -83.3161 208° Southwest 150 173 1,200 -492 Descending Cleveland Center
Sat 08:54:46 PM 42.2131 -83.3386 209° Southwest 162 186 1,100 -92 Descending Cleveland Center

Login

Don't have an account? Register now (free) for customized features, flight alerts, and more!